Terminal Aerodrome Forecast
Issued by NWS Jackson, KY

Home | Current Version | Previous Version | Text Only | Print | Product List | Glossary On
Versions: 1 2 3 4 5 6 7 8 9 10 11 12 13 14 15 16 17 18 19
000
FTUS43 KJKL 081200 AAA
TAFLOZ
TAF AMD
KLOZ 081239Z 0813/0912 23008G18KT P6SM SCT040 BKN120
     FM081430 23010G20KT P6SM VCTS SCT040CB BKN060
     FM082000 23015G25KT 4SM +SHRA VCTS SCT020 BKN035CB
     FM090000 22007KT P6SM VCSH BKN050=

USA.gov is the U.S. government's official web portal to all federal, state and local government web resources and services.